createdAt,value
2023-03-27T00:01:35.892Z,21.20
2023-03-27T00:04:03.812Z,22.03
2023-03-27T00:06:34.659Z,22.70
2023-03-27T00:09:03.857Z,22.87
2023-03-27T00:11:31.870Z,22.00
2023-03-27T00:13:59.964Z,26.43
2023-03-27T00:16:27.733Z,23.17
2023-03-27T00:18:55.556Z,21.93
2023-03-27T00:21:23.236Z,24.20
2023-03-27T00:23:51.425Z,24.80
2023-03-27T00:26:19.044Z,20.30
2023-03-27T00:28:47.640Z,21.07
2023-03-27T00:31:16.127Z,23.47
2023-03-27T00:33:44.331Z,21.93
2023-03-27T00:36:11.353Z,21.63
2023-03-27T00:38:39.840Z,18.93
2023-03-27T00:41:09.190Z,20.97
2023-03-27T00:43:36.800Z,20.50
2023-03-27T00:46:14.651Z,23.47
2023-03-27T00:48:41.840Z,24.07
2023-03-27T00:51:09.443Z,17.30
2023-03-27T00:53:37.313Z,19.63
2023-03-27T00:56:05.226Z,20.13
2023-03-27T00:58:34.410Z,16.93
2023-03-27T01:01:02.585Z,18.33
2023-03-27T01:03:53.793Z,15.17
2023-03-27T01:06:21.555Z,17.87
2023-03-27T01:08:48.786Z,17.67
2023-03-27T01:11:31.206Z,17.93
2023-03-27T01:14:11.040Z,18.47
2023-03-27T01:17:07.793Z,16.43
2023-03-27T01:20:05.881Z,19.93
2023-03-27T01:22:39.378Z,19.00
2023-03-27T01:25:24.516Z,15.90
2023-03-27T01:28:18.261Z,16.70
2023-03-27T01:30:51.210Z,16.17
2023-03-27T01:33:31.034Z,24.50
2023-03-27T01:36:46.520Z,20.53
2023-03-27T01:39:28.650Z,16.70
2023-03-27T01:42:06.996Z,20.67
2023-03-27T01:44:45.777Z,19.67
2023-03-27T01:47:32.655Z,19.83
2023-03-27T01:50:08.352Z,17.20
2023-03-27T01:52:40.914Z,19.77
2023-03-27T01:55:11.664Z,18.10
2023-03-27T01:57:50.392Z,16.37
2023-03-27T02:00:22.036Z,18.37
2023-03-27T02:03:16.503Z,17.80
2023-03-27T02:05:51.031Z,19.90
2023-03-27T02:08:21.350Z,16.93
2023-03-27T02:10:50.571Z,16.90
2023-03-27T02:13:21.494Z,16.97
2023-03-27T02:15:48.907Z,18.03
2023-03-27T02:18:23.306Z,16.63
2023-03-27T02:20:53.782Z,17.23
2023-03-27T02:23:23.097Z,19.23
2023-03-27T02:25:50.859Z,17.97
2023-03-27T02:28:36.716Z,16.77
2023-03-27T02:31:35.352Z,14.80
2023-03-27T02:34:27.099Z,16.80
2023-03-27T02:37:36.014Z,15.47
2023-03-27T02:40:14.980Z,17.83
2023-03-27T02:42:51.839Z,16.37
2023-03-27T02:45:26.546Z,15.50
2023-03-27T02:48:06.044Z,15.23
2023-03-27T02:50:38.386Z,14.73
2023-03-27T02:53:05.933Z,15.80
2023-03-27T02:55:36.321Z,14.50
2023-03-27T02:58:08.582Z,16.87
2023-03-27T03:00:39.731Z,18.17
2023-03-27T03:03:15.351Z,19.07
2023-03-27T03:05:44.108Z,15.97
2023-03-27T03:08:11.790Z,16.30
2023-03-27T03:10:45.146Z,15.83
2023-03-27T03:13:13.410Z,16.50
2023-03-27T03:15:41.248Z,22.20
2023-03-27T03:18:09.244Z,18.90
2023-03-27T03:20:36.956Z,19.07
2023-03-27T03:23:05.075Z,15.87
2023-03-27T03:25:33.202Z,22.03
2023-03-27T03:28:01.319Z,27.67
2023-03-27T03:30:31.866Z,26.83
2023-03-27T03:33:00.307Z,23.73
2023-03-27T03:35:28.278Z,26.73
2023-03-27T03:37:58.891Z,28.73
2023-03-27T03:40:26.837Z,30.03
2023-03-27T03:42:54.454Z,33.13
2023-03-27T03:45:22.493Z,35.07
2023-03-27T03:47:53.119Z,33.67
2023-03-27T03:50:21.331Z,33.33
2023-03-27T03:52:49.293Z,35.70
2023-03-27T03:55:17.720Z,32.10
2023-03-27T03:57:50.239Z,36.90
2023-03-27T04:00:18.732Z,34.13
2023-03-27T04:02:46.472Z,35.70
2023-03-27T04:05:14.476Z,33.17
2023-03-27T04:07:42.463Z,35.63
2023-03-27T04:10:13.585Z,34.90
2023-03-27T04:12:41.264Z,33.57
2023-03-27T04:15:09.360Z,35.40
2023-03-27T04:17:38.434Z,31.03
2023-03-27T04:20:08.925Z,35.10
2023-03-27T04:22:38.226Z,33.57
2023-03-27T04:25:08.365Z,34.23
2023-03-27T04:27:36.370Z,35.27
2023-03-27T04:30:04.857Z,33.13
2023-03-27T04:32:32.986Z,33.40
2023-03-27T04:35:00.972Z,32.13
2023-03-27T04:37:29.046Z,32.47
2023-03-27T04:39:58.405Z,32.23
2023-03-27T04:42:27.185Z,45.73
2023-03-27T04:44:55.567Z,33.83
2023-03-27T04:47:23.928Z,30.37
2023-03-27T04:49:52.118Z,29.67
2023-03-27T04:52:20.807Z,31.20
2023-03-27T04:54:48.823Z,31.23
2023-03-27T04:57:19.202Z,28.87
2023-03-27T04:59:47.208Z,45.80
2023-03-27T05:02:16.239Z,46.03
2023-03-27T05:04:44.734Z,33.53
2023-03-27T05:07:12.385Z,56.73
2023-03-27T05:09:40.142Z,78.23
2023-03-27T05:12:08.948Z,75.53
2023-03-27T05:14:36.817Z,66.10
2023-03-27T05:17:05.621Z,44.87
2023-03-27T05:19:34.201Z,42.13
2023-03-27T05:22:02.704Z,75.67
2023-03-27T05:24:30.589Z,50.60
2023-03-27T05:26:58.720Z,56.87
2023-03-27T05:29:26.887Z,51.03
2023-03-27T05:31:54.743Z,49.13
2023-03-27T05:34:22.791Z,57.10
2023-03-27T05:36:51.288Z,50.23
2023-03-27T05:39:19.215Z,41.53
2023-03-27T05:41:47.584Z,44.27
2023-03-27T05:44:16.129Z,37.97
2023-03-27T05:46:44.068Z,34.90
2023-03-27T05:49:12.282Z,32.40
2023-03-27T05:51:40.422Z,41.53
2023-03-27T05:54:15.155Z,45.47
2023-03-27T05:56:44.065Z,55.27
2023-03-27T05:59:11.840Z,46.47
2023-03-27T06:01:42.862Z,37.13
2023-03-27T06:04:11.182Z,44.43
2023-03-27T06:06:39.374Z,57.17
2023-03-27T06:09:07.811Z,45.93
2023-03-27T06:11:35.500Z,56.53
2023-03-27T06:14:02.944Z,43.03
2023-03-27T06:16:30.782Z,36.03
2023-03-27T06:18:59.176Z,31.40
2023-03-27T06:21:27.544Z,49.47
2023-03-27T06:23:56.409Z,43.63
2023-03-27T06:26:24.896Z,50.73
2023-03-27T06:28:54.324Z,49.43
2023-03-27T06:31:22.159Z,58.40
2023-03-27T06:33:50.291Z,43.30
2023-03-27T06:36:18.197Z,47.30
2023-03-27T06:38:46.475Z,64.90
2023-03-27T06:41:15.549Z,45.07
2023-03-27T06:43:43.622Z,44.17
2023-03-27T06:46:11.929Z,51.40
2023-03-27T06:48:40.000Z,40.33
2023-03-27T06:51:08.075Z,44.37
2023-03-27T06:53:38.106Z,61.83
2023-03-27T06:56:09.271Z,38.63
2023-03-27T06:58:37.424Z,43.67
2023-03-27T07:01:06.426Z,48.17
2023-03-27T07:03:34.543Z,43.53
2023-03-27T07:06:02.320Z,38.93
2023-03-27T07:08:29.979Z,65.17
2023-03-27T07:11:10.588Z,48.53
2023-03-27T07:13:41.245Z,41.37
2023-03-27T07:16:14.167Z,37.40
2023-03-27T07:18:42.219Z,35.00
2023-03-27T07:21:10.263Z,39.20
2023-03-27T07:23:38.631Z,24.03
2023-03-27T07:26:08.277Z,28.97
2023-03-27T07:28:38.766Z,28.90
2023-03-27T07:31:25.995Z,27.00
2023-03-27T07:33:58.723Z,29.30
2023-03-27T07:36:26.612Z,38.50
2023-03-27T07:38:54.525Z,31.47
2023-03-27T07:41:22.914Z,31.63
2023-03-27T07:43:50.659Z,26.67
2023-03-27T07:46:19.046Z,32.80
2023-03-27T07:48:47.154Z,28.07
2023-03-27T07:51:15.451Z,29.13
2023-03-27T07:53:43.746Z,26.00
2023-03-27T07:56:11.675Z,26.67
2023-03-27T07:58:39.770Z,25.33
2023-03-27T08:01:07.865Z,25.50
2023-03-27T08:03:36.091Z,33.17
2023-03-27T08:06:03.441Z,40.70
2023-03-27T08:08:31.380Z,35.07
2023-03-27T08:10:59.803Z,29.80
2023-03-27T08:13:27.858Z,24.50
2023-03-27T08:16:07.986Z,21.23
2023-03-27T08:18:36.546Z,17.83
2023-03-27T08:21:04.548Z,19.53
2023-03-27T08:23:33.895Z,20.03
2023-03-27T08:26:01.713Z,18.50
2023-03-27T08:28:32.731Z,17.13
2023-03-27T08:31:02.930Z,18.77
2023-03-27T08:33:31.043Z,18.07
2023-03-27T08:35:59.514Z,17.07
2023-03-27T08:38:28.709Z,15.50
2023-03-27T08:40:59.208Z,16.60
2023-03-27T08:43:28.950Z,13.33
2023-03-27T08:45:59.208Z,14.53
2023-03-27T08:48:35.364Z,11.93
2023-03-27T08:51:05.608Z,10.60
2023-03-27T08:53:47.555Z,11.43
2023-03-27T08:56:15.423Z,8.77
2023-03-27T08:58:43.587Z,6.97
2023-03-27T09:01:55.382Z,7.30
2023-03-27T09:04:28.181Z,3.73
2023-03-27T09:07:07.341Z,3.07
2023-03-27T09:10:00.628Z,3.40
2023-03-27T09:13:06.781Z,4.60
2023-03-27T09:15:37.733Z,2.17
2023-03-27T09:18:13.593Z,3.67
2023-03-27T09:20:46.431Z,2.13
2023-03-27T09:23:43.063Z,1.23
2023-03-27T09:26:23.355Z,1.80
2023-03-27T09:28:56.249Z,1.63
2023-03-27T09:31:33.457Z,0.33
2023-03-27T09:34:03.988Z,1.23
2023-03-27T09:36:32.368Z,0.83
2023-03-27T09:39:05.848Z,1.23
2023-03-27T09:41:44.974Z,0.87
2023-03-27T09:44:21.114Z,2.20
2023-03-27T09:46:50.132Z,1.20
2023-03-27T09:49:25.522Z,1.63
2023-03-27T09:51:53.826Z,1.40
2023-03-27T09:54:22.453Z,1.70
2023-03-27T09:57:13.706Z,0.90
2023-03-27T09:59:58.579Z,1.37
2023-03-27T10:02:30.121Z,2.73
2023-03-27T10:04:59.311Z,2.90
2023-03-27T10:07:27.464Z,3.07
2023-03-27T10:10:15.869Z,2.20
2023-03-27T10:12:43.491Z,1.00
2023-03-27T10:15:49.240Z,3.23
2023-03-27T10:18:32.506Z,1.57
2023-03-27T10:21:01.616Z,2.50
2023-03-27T10:23:30.536Z,3.23
2023-03-27T10:26:04.441Z,0.80
2023-03-27T10:28:35.341Z,2.33
2023-03-27T10:31:31.831Z,1.13
2023-03-27T10:34:02.131Z,1.40
2023-03-27T10:36:33.688Z,1.23
2023-03-27T10:39:09.046Z,1.07
2023-03-27T10:41:37.211Z,0.90
2023-03-27T10:44:13.022Z,0.50
2023-03-27T10:46:41.360Z,1.58
2023-03-27T10:49:25.647Z,1.70
2023-03-27T10:52:03.206Z,1.00
2023-03-27T10:54:51.773Z,3.70
2023-03-27T10:57:32.000Z,2.17
2023-03-27T11:00:19.798Z,4.97
2023-03-27T11:02:54.408Z,3.47
2023-03-27T11:05:24.198Z,3.03
2023-03-27T11:07:55.918Z,3.30
2023-03-27T11:10:58.385Z,3.33
2023-03-27T11:13:32.423Z,2.30
2023-03-27T11:16:21.285Z,3.60
2023-03-27T11:19:10.804Z,1.80
2023-03-27T11:21:44.667Z,3.33
2023-03-27T11:24:28.762Z,2.83
2023-03-27T11:27:12.274Z,2.55
2023-03-27T11:29:52.744Z,2.80
2023-03-27T11:32:33.708Z,2.45
2023-03-27T11:35:24.385Z,2.20
2023-03-27T11:38:03.529Z,2.95
2023-03-27T11:40:36.438Z,2.50
2023-03-27T11:43:04.390Z,1.13
2023-03-27T11:45:38.178Z,1.13
2023-03-27T11:48:30.115Z,1.23
2023-03-27T11:51:03.490Z,0.50
2023-03-27T11:53:33.481Z,1.20
2023-03-27T11:56:09.138Z,0.75
2023-03-27T11:59:12.983Z,2.28
2023-03-27T12:02:10.049Z,2.13
2023-03-27T12:04:51.541Z,1.23
2023-03-27T12:07:36.092Z,0.22
2023-03-27T12:10:28.519Z,0.43
2023-03-27T12:13:17.624Z,0.60
2023-03-27T12:16:03.012Z,0.13
2023-03-27T12:19:00.562Z,0.60
2023-03-27T12:21:48.803Z,2.47
2023-03-27T12:24:53.407Z,1.33
2023-03-27T12:28:01.433Z,0.20
2023-03-27T12:30:40.149Z,0.40
2023-03-27T12:33:07.128Z,2.63
2023-03-27T12:35:38.621Z,0.10
2023-03-27T12:38:32.254Z,1.20
2023-03-27T12:41:16.074Z,0.10
2023-03-27T12:43:46.846Z,0.60
2023-03-27T12:46:29.094Z,1.08
2023-03-27T12:49:08.099Z,0.40
2023-03-27T12:51:53.743Z,0.63
2023-03-27T12:54:30.537Z,0.17
2023-03-27T12:57:35.923Z,0.20
2023-03-27T13:00:10.434Z,0.30
2023-03-27T13:03:09.761Z,1.33
2023-03-27T13:05:39.939Z,0.30
2023-03-27T13:08:30.145Z,0.10
2023-03-27T13:11:19.473Z,1.13
2023-03-27T13:13:46.584Z,1.70
2023-03-27T13:16:45.720Z,0.40
2023-03-27T13:19:36.775Z,0.30
2023-03-27T13:22:28.446Z,0.80
2023-03-27T13:25:11.396Z,0.33
2023-03-27T13:27:50.154Z,0.10
2023-03-27T13:30:41.426Z,0.65
2023-03-27T13:33:12.988Z,0.13
2023-03-27T13:35:41.959Z,3.08
2023-03-27T13:38:10.680Z,6.95
2023-03-27T13:40:39.888Z,2.50
2023-03-27T13:43:15.248Z,0.22
2023-03-27T13:45:47.180Z,0.32
2023-03-27T13:48:38.911Z,2.00
2023-03-27T13:51:31.123Z,0.73
2023-03-27T13:54:19.977Z,0.00
2023-03-27T13:56:55.465Z,0.80
2023-03-27T14:00:03.335Z,2.17
2023-03-27T14:02:36.509Z,1.45
2023-03-27T14:05:35.678Z,0.20
2023-03-27T14:08:45.017Z,1.38
2023-03-27T14:11:37.959Z,2.30
2023-03-27T14:14:23.453Z,1.00
2023-03-27T14:17:28.096Z,3.40
2023-03-27T14:20:00.907Z,1.10
2023-03-27T14:22:54.027Z,1.27
2023-03-27T14:25:49.814Z,1.30
2023-03-27T14:28:53.960Z,0.87
2023-03-27T14:31:21.321Z,0.70
2023-03-27T14:34:01.893Z,11.80
2023-03-27T14:36:30.337Z,20.83
2023-03-27T14:39:16.621Z,17.60
2023-03-27T14:41:53.007Z,7.13
2023-03-27T14:44:20.729Z,3.15
2023-03-27T14:46:49.058Z,2.43
2023-03-27T14:49:24.776Z,7.57
2023-03-27T14:51:53.725Z,3.25
2023-03-27T14:54:27.182Z,4.93
2023-03-27T14:57:00.474Z,2.20
2023-03-27T14:59:30.600Z,0.80
2023-03-27T15:01:58.546Z,1.90
2023-03-27T15:04:27.147Z,2.03
2023-03-27T15:06:56.912Z,1.60
2023-03-27T15:09:24.971Z,5.40
2023-03-27T15:11:56.192Z,2.67
2023-03-27T15:14:30.375Z,1.70
2023-03-27T15:17:15.663Z,0.70
2023-03-27T15:19:53.849Z,0.43
2023-03-27T15:22:24.059Z,1.40
2023-03-27T15:24:57.304Z,1.07
2023-03-27T15:27:31.805Z,0.60
2023-03-27T15:30:02.365Z,1.53
2023-03-27T15:32:34.146Z,0.60
2023-03-27T15:35:03.482Z,1.20
2023-03-27T15:37:31.882Z,0.53
2023-03-27T15:40:09.513Z,1.80
2023-03-27T15:42:48.184Z,0.50
2023-03-27T15:45:23.125Z,0.90
2023-03-27T15:48:06.859Z,3.80
2023-03-27T15:50:34.950Z,0.93
2023-03-27T15:53:03.309Z,3.00
2023-03-27T15:55:44.649Z,0.93
2023-03-27T15:58:20.518Z,3.10
2023-03-27T16:00:48.229Z,0.60
2023-03-27T16:03:25.524Z,1.27
2023-03-27T16:05:56.757Z,2.40
2023-03-27T16:08:34.946Z,0.70
2023-03-27T16:11:02.310Z,3.67
2023-03-27T16:13:54.928Z,2.00
2023-03-27T16:16:27.233Z,2.13
2023-03-27T16:18:55.377Z,0.60
2023-03-27T16:21:23.852Z,1.00
2023-03-27T16:23:51.920Z,2.63
2023-03-27T16:26:23.135Z,1.42
2023-03-27T16:28:50.777Z,3.17
2023-03-27T16:31:20.043Z,2.77
2023-03-27T16:33:48.203Z,3.87
2023-03-27T16:36:16.225Z,1.27
2023-03-27T16:38:44.019Z,2.20
2023-03-27T16:41:15.968Z,2.70
2023-03-27T16:43:44.382Z,1.20
2023-03-27T16:46:29.776Z,3.07
2023-03-27T16:49:17.007Z,4.77
2023-03-27T16:52:04.475Z,3.17
2023-03-27T16:54:33.721Z,1.53
2023-03-27T16:57:01.119Z,1.53
2023-03-27T16:59:29.218Z,3.07
2023-03-27T17:01:57.383Z,2.90
2023-03-27T17:04:25.685Z,1.60
2023-03-27T17:06:53.548Z,3.67
2023-03-27T17:09:22.738Z,0.97
2023-03-27T17:11:53.947Z,0.87
2023-03-27T17:14:22.103Z,4.50
2023-03-27T17:16:51.265Z,2.67
2023-03-27T17:19:18.852Z,4.83
2023-03-27T17:21:47.205Z,2.97
2023-03-27T17:24:14.912Z,2.67
2023-03-27T17:26:43.458Z,26.63
2023-03-27T17:29:11.498Z,45.80
2023-03-27T17:31:39.477Z,24.70
2023-03-27T17:34:07.870Z,4.73
2023-03-27T17:36:44.936Z,6.10
2023-03-27T17:39:15.504Z,2.60
2023-03-27T17:41:44.110Z,9.00
2023-03-27T17:44:13.267Z,3.50
2023-03-27T17:46:41.200Z,16.10
2023-03-27T17:49:09.005Z,6.63
2023-03-27T17:51:37.205Z,4.80
2023-03-27T17:54:05.898Z,11.93
2023-03-27T17:56:33.932Z,5.10
2023-03-27T17:59:02.859Z,1.47
2023-03-27T18:01:34.030Z,3.90
2023-03-27T18:04:01.838Z,0.97
2023-03-27T18:06:30.310Z,0.27
2023-03-27T18:08:58.235Z,1.07
2023-03-27T18:11:26.018Z,1.37
2023-03-27T18:13:54.086Z,1.27
2023-03-27T18:16:23.231Z,1.60
2023-03-27T18:18:52.581Z,2.03
2023-03-27T18:21:20.985Z,1.83
2023-03-27T18:23:49.117Z,2.70
2023-03-27T18:26:16.738Z,0.73
2023-03-27T18:28:47.936Z,0.50
2023-03-27T18:31:17.837Z,0.40
2023-03-27T18:33:46.060Z,0.20
2023-03-27T18:36:14.187Z,0.90
2023-03-27T18:38:42.320Z,0.40
2023-03-27T18:41:10.415Z,0.40
2023-03-27T18:43:38.855Z,0.77
2023-03-27T18:46:08.483Z,0.80
2023-03-27T18:48:36.489Z,1.77
2023-03-27T18:51:07.971Z,0.40
2023-03-27T18:53:35.816Z,0.30
2023-03-27T18:56:03.890Z,0.67
2023-03-27T18:58:32.281Z,0.83
2023-03-27T19:01:00.081Z,0.33
2023-03-27T19:03:30.365Z,1.10
2023-03-27T19:06:00.411Z,0.40
2023-03-27T19:08:28.616Z,0.43
2023-03-27T19:10:57.900Z,0.40
2023-03-27T19:13:25.956Z,2.23
2023-03-27T19:15:54.034Z,0.47
2023-03-27T19:18:22.139Z,4.37
2023-03-27T19:20:50.333Z,0.50
2023-03-27T19:23:18.207Z,0.57
2023-03-27T19:25:49.588Z,0.60
2023-03-27T19:28:17.448Z,0.50
2023-03-27T19:30:48.402Z,0.20
2023-03-27T19:33:15.908Z,0.63
2023-03-27T19:35:44.087Z,0.83
2023-03-27T19:38:11.959Z,1.03
2023-03-27T19:40:39.663Z,0.43
2023-03-27T19:43:07.796Z,0.80
2023-03-27T19:45:36.021Z,1.07
2023-03-27T19:48:04.099Z,0.87
2023-03-27T19:50:31.433Z,0.97
2023-03-27T19:53:08.190Z,1.37
2023-03-27T19:55:36.914Z,1.23
2023-03-27T19:58:04.502Z,2.17
2023-03-27T20:00:32.280Z,1.23
2023-03-27T20:03:00.357Z,1.30
2023-03-27T20:05:29.733Z,1.77
2023-03-27T20:07:57.380Z,0.70
2023-03-27T20:10:27.069Z,3.20
2023-03-27T20:12:54.771Z,2.63
2023-03-27T20:15:22.609Z,1.67
2023-03-27T20:17:53.563Z,1.40
2023-03-27T20:20:21.576Z,0.97
2023-03-27T20:22:57.511Z,1.63
2023-03-27T20:25:25.455Z,1.95
2023-03-27T20:27:53.113Z,1.67
2023-03-27T20:30:21.483Z,0.63
2023-03-27T20:32:49.155Z,1.07
2023-03-27T20:35:24.184Z,2.33
2023-03-27T20:37:57.798Z,3.07
2023-03-27T20:40:26.357Z,1.90
2023-03-27T20:43:03.487Z,1.00
2023-03-27T20:45:31.561Z,1.27
2023-03-27T20:48:05.681Z,1.30
2023-03-27T20:50:35.362Z,1.83
2023-03-27T20:53:04.856Z,1.40
2023-03-27T20:55:41.561Z,2.00
2023-03-27T20:58:20.145Z,0.90
2023-03-27T21:00:48.883Z,1.93
2023-03-27T21:03:16.844Z,0.73
2023-03-27T21:05:44.805Z,1.20
2023-03-27T21:08:12.884Z,0.97
2023-03-27T21:10:40.763Z,1.03
2023-03-27T21:13:08.345Z,1.20
2023-03-27T21:15:36.373Z,0.53
2023-03-27T21:18:05.423Z,0.50
2023-03-27T21:20:35.360Z,1.73
2023-03-27T21:23:03.634Z,0.77
2023-03-27T21:25:31.714Z,0.87
2023-03-27T21:27:59.344Z,1.90
2023-03-27T21:30:46.539Z,2.30
2023-03-27T21:33:16.178Z,1.73
2023-03-27T21:35:45.840Z,1.17
2023-03-27T21:38:14.595Z,1.13
2023-03-27T21:40:41.598Z,4.17
2023-03-27T21:43:09.484Z,2.57
2023-03-27T21:45:40.434Z,0.73
2023-03-27T21:48:10.571Z,8.80
2023-03-27T21:50:39.739Z,0.30
2023-03-27T21:53:08.021Z,0.40
2023-03-27T21:55:35.938Z,1.43
2023-03-27T21:58:04.472Z,2.43
2023-03-27T22:00:32.574Z,0.90
2023-03-27T22:03:01.040Z,1.47
2023-03-27T22:05:29.111Z,1.23
2023-03-27T22:07:57.755Z,0.97
2023-03-27T22:10:25.443Z,1.03
2023-03-27T22:12:53.273Z,1.00
2023-03-27T22:15:21.211Z,1.60
2023-03-27T22:17:49.142Z,0.63
2023-03-27T22:20:17.220Z,0.90
2023-03-27T22:22:45.111Z,2.17
2023-03-27T22:25:13.782Z,0.33
2023-03-27T22:27:42.035Z,0.30
2023-03-27T22:30:12.781Z,2.73
2023-03-27T22:32:43.418Z,0.70
2023-03-27T22:35:11.365Z,1.73
2023-03-27T22:37:39.471Z,0.40
2023-03-27T22:40:10.574Z,3.03
2023-03-27T22:42:38.330Z,0.37
2023-03-27T22:45:06.928Z,0.90
2023-03-27T22:47:36.120Z,0.60
2023-03-27T22:50:06.455Z,0.43
2023-03-27T22:52:34.072Z,0.70
2023-03-27T22:55:01.998Z,0.47
2023-03-27T22:57:30.107Z,2.70
2023-03-27T22:59:58.162Z,0.43
2023-03-27T23:02:26.007Z,0.40
2023-03-27T23:04:54.183Z,0.97
2023-03-27T23:07:21.923Z,0.83
2023-03-27T23:09:50.383Z,0.60
2023-03-27T23:12:18.482Z,0.60
2023-03-27T23:14:46.299Z,1.27
2023-03-27T23:17:14.106Z,1.23
2023-03-27T23:19:41.995Z,0.90
2023-03-27T23:22:10.545Z,0.30
2023-03-27T23:24:39.003Z,1.03
2023-03-27T23:27:08.589Z,1.03
2023-03-27T23:29:36.740Z,0.60
2023-03-27T23:32:05.050Z,0.50
2023-03-27T23:34:33.177Z,0.80
2023-03-27T23:37:00.773Z,1.43
2023-03-27T23:39:28.517Z,2.33
2023-03-27T23:41:57.239Z,1.10
2023-03-27T23:44:25.303Z,0.70
2023-03-27T23:46:56.511Z,0.30
2023-03-27T23:49:24.550Z,2.30
2023-03-27T23:51:53.141Z,1.53
2023-03-27T23:54:22.265Z,1.63
2023-03-27T23:56:50.528Z,6.33
2023-03-27T23:59:18.653Z,0.70
